createdAt,value
2022-11-04T00:00:02.460Z,0.70
2022-11-04T00:00:15.004Z,0.70
2022-11-04T00:00:29.831Z,0.77
2022-11-04T00:00:42.234Z,0.80
2022-11-04T00:00:54.304Z,0.80
2022-11-04T00:01:06.455Z,0.82
2022-11-04T00:01:18.685Z,0.90
2022-11-04T00:01:30.740Z,0.80
2022-11-04T00:01:44.991Z,0.80
2022-11-04T00:01:57.802Z,0.70
2022-11-04T00:02:09.801Z,0.73
2022-11-04T00:02:21.764Z,0.70
2022-11-04T00:02:33.742Z,0.68
2022-11-04T00:02:45.828Z,0.70
2022-11-04T00:02:58.047Z,0.80
2022-11-04T00:03:10.384Z,0.80
2022-11-04T00:03:22.518Z,0.77
2022-11-04T00:03:34.382Z,0.73
2022-11-04T00:03:46.594Z,0.80
2022-11-04T00:03:58.622Z,0.80
2022-11-04T00:04:12.124Z,0.80
2022-11-04T00:04:26.670Z,0.82
2022-11-04T00:04:38.541Z,0.75
2022-11-04T00:04:50.428Z,0.73
2022-11-04T00:05:02.342Z,0.70
2022-11-04T00:05:14.284Z,0.60
2022-11-04T00:05:26.208Z,0.70
2022-11-04T00:05:38.141Z,0.80
2022-11-04T00:05:50.016Z,0.80
2022-11-04T00:06:01.983Z,0.73
2022-11-04T00:06:13.882Z,0.70
2022-11-04T00:06:25.881Z,0.77
2022-11-04T00:06:38.204Z,0.80
2022-11-04T00:06:50.174Z,0.80
2022-11-04T00:07:02.053Z,0.70
2022-11-04T00:07:32.344Z,0.75
2022-11-04T00:08:02.542Z,0.80
2022-11-04T00:08:26.426Z,0.80
2022-11-04T00:08:38.323Z,0.80
2022-11-04T00:08:55.076Z,0.80
2022-11-04T00:09:09.520Z,0.70
2022-11-04T00:09:24.243Z,0.73
2022-11-04T00:09:36.123Z,0.80
2022-11-04T00:09:48.241Z,0.80
2022-11-04T00:10:00.108Z,0.80
2022-11-04T00:10:11.987Z,0.80
2022-11-04T00:10:43.828Z,0.85
2022-11-04T00:11:16.253Z,0.70
2022-11-04T00:11:47.092Z,0.88
2022-11-04T00:12:17.384Z,0.98
2022-11-04T00:12:29.266Z,0.82
2022-11-04T00:12:41.148Z,0.90
2022-11-04T00:12:53.092Z,0.90
2022-11-04T00:13:05.149Z,0.80
2022-11-04T00:13:17.216Z,0.70
2022-11-04T00:13:30.041Z,0.75
2022-11-04T00:13:42.584Z,0.93
2022-11-04T00:13:54.502Z,1.00
2022-11-04T00:14:08.370Z,0.88
2022-11-04T00:14:20.403Z,0.80
2022-11-04T00:14:33.106Z,0.90
2022-11-04T00:14:45.014Z,1.00
2022-11-04T00:15:16.879Z,1.00
2022-11-04T00:15:47.482Z,0.90
2022-11-04T00:16:20.914Z,0.70
2022-11-04T00:16:51.304Z,0.82
2022-11-04T00:17:19.869Z,0.80
2022-11-04T00:17:31.995Z,0.80
2022-11-04T00:17:43.861Z,0.90
2022-11-04T00:17:55.739Z,0.90
2022-11-04T00:18:07.611Z,0.80
2022-11-04T00:18:19.494Z,0.90
2022-11-04T00:18:31.430Z,0.80
2022-11-04T00:18:43.326Z,0.77
2022-11-04T00:18:55.621Z,0.70
2022-11-04T00:19:07.542Z,0.80
2022-11-04T00:19:19.802Z,0.85
2022-11-04T00:19:50.453Z,0.90
2022-11-04T00:20:21.070Z,0.80
2022-11-04T00:20:51.369Z,0.98
2022-11-04T00:21:22.166Z,0.77
2022-11-04T00:21:52.457Z,0.80
2022-11-04T00:22:22.776Z,1.00
2022-11-04T00:22:53.963Z,1.02
2022-11-04T00:23:24.153Z,0.80
2022-11-04T00:23:54.333Z,0.80
2022-11-04T00:24:26.575Z,0.73
2022-11-04T00:24:56.854Z,0.90
2022-11-04T00:25:28.788Z,1.00
2022-11-04T00:26:01.009Z,1.00
2022-11-04T00:26:31.572Z,0.90
2022-11-04T00:27:01.943Z,0.90
2022-11-04T00:27:37.948Z,1.10
2022-11-04T00:28:08.850Z,1.00
2022-11-04T00:28:39.434Z,0.85
2022-11-04T00:28:52.917Z,0.88
2022-11-04T00:29:04.814Z,0.70
2022-11-04T00:29:16.699Z,0.80
2022-11-04T00:29:28.654Z,0.82
2022-11-04T00:29:40.754Z,0.90
2022-11-04T00:29:52.684Z,0.77
2022-11-04T00:30:08.259Z,0.70
2022-11-04T00:30:20.147Z,0.82
2022-11-04T00:30:32.175Z,1.00
2022-11-04T00:30:44.047Z,1.10
2022-11-04T00:30:57.567Z,0.98
2022-11-04T00:31:28.308Z,1.00
2022-11-04T00:31:58.568Z,0.90
2022-11-04T00:32:29.212Z,0.98
2022-11-04T00:32:59.502Z,0.88
2022-11-04T00:33:26.281Z,1.08
2022-11-04T00:33:38.170Z,1.00
2022-11-04T00:33:52.026Z,1.00
2022-11-04T00:34:03.895Z,1.00
2022-11-04T00:34:15.858Z,0.90
2022-11-04T00:34:27.780Z,0.93
2022-11-04T00:34:39.647Z,1.00
2022-11-04T00:34:51.512Z,1.00
2022-11-04T00:35:03.563Z,0.90
2022-11-04T00:35:15.532Z,0.80
2022-11-04T00:35:27.413Z,0.80
2022-11-04T00:35:39.282Z,0.82
2022-11-04T00:35:55.752Z,0.90
2022-11-04T00:36:07.973Z,0.80
2022-11-04T00:36:20.923Z,0.80
2022-11-04T00:36:32.902Z,0.80
2022-11-04T00:36:44.782Z,0.80
2022-11-04T00:36:56.666Z,0.90
2022-11-04T00:37:08.630Z,0.90
2022-11-04T00:37:20.557Z,0.90
2022-11-04T00:37:32.430Z,0.93
2022-11-04T00:37:44.944Z,0.90
2022-11-04T00:37:56.801Z,0.88
2022-11-04T00:38:09.063Z,0.80
2022-11-04T00:38:21.964Z,0.80
2022-11-04T00:38:33.815Z,0.90
2022-11-04T00:38:45.958Z,1.00
2022-11-04T00:38:58.226Z,0.90
2022-11-04T00:39:10.070Z,0.90
2022-11-04T00:39:21.932Z,0.80
2022-11-04T00:39:33.805Z,0.70
2022-11-04T00:39:45.898Z,0.77
2022-11-04T00:39:57.808Z,1.02
2022-11-04T00:40:12.579Z,1.07
2022-11-04T00:40:24.460Z,0.90
2022-11-04T00:40:36.333Z,1.00
2022-11-04T00:40:48.301Z,0.93
2022-11-04T00:41:00.167Z,0.82
2022-11-04T00:41:25.854Z,0.90
2022-11-04T00:41:37.749Z,1.02
2022-11-04T00:41:49.594Z,1.10
2022-11-04T00:42:01.506Z,0.82
2022-11-04T00:42:13.351Z,0.80
2022-11-04T00:42:25.237Z,0.90
2022-11-04T00:42:37.418Z,1.00
2022-11-04T00:42:49.299Z,1.00
2022-11-04T00:43:01.199Z,0.95
2022-11-04T00:43:13.123Z,0.88
2022-11-04T00:43:24.987Z,0.88
2022-11-04T00:43:36.857Z,0.90
2022-11-04T00:43:48.746Z,0.88
2022-11-04T00:44:02.887Z,0.80
2022-11-04T00:44:14.777Z,0.80
2022-11-04T00:44:26.681Z,0.95
2022-11-04T00:44:38.550Z,0.90
2022-11-04T00:44:50.420Z,0.82
2022-11-04T00:45:02.653Z,0.80
2022-11-04T00:45:14.568Z,0.88
2022-11-04T00:45:26.440Z,1.05
2022-11-04T00:45:39.866Z,1.08
2022-11-04T00:45:51.765Z,1.05
2022-11-04T00:46:03.653Z,0.93
2022-11-04T00:46:15.514Z,0.95
2022-11-04T00:46:32.706Z,0.77
2022-11-04T00:46:44.584Z,0.88
2022-11-04T00:46:56.579Z,0.88
2022-11-04T00:47:08.468Z,0.82
2022-11-04T00:47:20.346Z,0.80
2022-11-04T00:47:32.652Z,0.80
2022-11-04T00:47:44.537Z,0.88
2022-11-04T00:47:56.382Z,0.80
2022-11-04T00:48:09.399Z,0.85
2022-11-04T00:48:21.478Z,0.80
2022-11-04T00:48:33.334Z,0.70
2022-11-04T00:48:45.196Z,0.70
2022-11-04T00:48:57.828Z,0.80
2022-11-04T00:49:09.771Z,0.80
2022-11-04T00:49:21.677Z,0.85
2022-11-04T00:49:33.546Z,0.80
2022-11-04T00:49:45.430Z,0.82
2022-11-04T00:49:57.312Z,0.80
2022-11-04T00:50:09.441Z,0.80
2022-11-04T00:50:21.307Z,0.90
2022-11-04T00:50:33.167Z,0.85
2022-11-04T00:50:45.009Z,0.80
2022-11-04T00:50:57.187Z,0.80
2022-11-04T00:51:09.088Z,0.90
2022-11-04T00:51:21.717Z,0.90
2022-11-04T00:51:33.714Z,1.00
2022-11-04T00:51:45.583Z,0.90
2022-11-04T00:51:57.535Z,0.90
2022-11-04T00:52:09.419Z,0.80
2022-11-04T00:52:21.862Z,0.80
2022-11-04T00:52:33.809Z,0.80
2022-11-04T00:52:45.692Z,0.98
2022-11-04T00:53:04.418Z,0.90
2022-11-04T00:53:16.303Z,0.80
2022-11-04T00:53:28.190Z,0.90
2022-11-04T00:53:40.264Z,0.85
2022-11-04T00:53:52.170Z,0.73
2022-11-04T00:54:04.384Z,0.70
2022-11-04T00:54:16.345Z,0.70
2022-11-04T00:54:28.253Z,0.90
2022-11-04T00:54:40.118Z,0.90
2022-11-04T00:54:51.968Z,1.00
2022-11-04T00:55:04.410Z,1.15
2022-11-04T00:55:16.426Z,1.10
2022-11-04T00:55:28.798Z,0.85
2022-11-04T00:55:40.768Z,0.80
2022-11-04T00:55:52.650Z,0.75
2022-11-04T00:56:04.820Z,0.77
2022-11-04T00:56:16.819Z,0.80
2022-11-04T00:56:28.790Z,0.80
2022-11-04T00:56:41.924Z,0.88
2022-11-04T00:56:54.019Z,0.90
2022-11-04T00:57:08.682Z,0.90
2022-11-04T00:57:20.559Z,0.80
2022-11-04T00:57:32.425Z,0.80
2022-11-04T00:57:44.293Z,0.90
2022-11-04T00:57:58.345Z,0.95
2022-11-04T00:58:10.218Z,0.98
2022-11-04T00:58:22.078Z,1.00
2022-11-04T00:58:33.973Z,0.90
2022-11-04T00:58:46.004Z,0.98
2022-11-04T00:59:01.121Z,0.90
2022-11-04T00:59:14.563Z,0.90
2022-11-04T00:59:26.693Z,0.98
2022-11-04T00:59:39.843Z,1.00
2022-11-04T00:59:51.730Z,1.00
2022-11-04T01:00:04.331Z,1.00
2022-11-04T01:00:16.407Z,0.95
2022-11-04T01:00:28.408Z,0.90
2022-11-04T01:00:40.513Z,0.80
2022-11-04T01:00:52.405Z,0.90
2022-11-04T01:01:12.081Z,1.00
2022-11-04T01:01:24.108Z,0.90
2022-11-04T01:01:36.259Z,0.80
2022-11-04T01:01:48.362Z,0.82
2022-11-04T01:02:00.458Z,0.90
2022-11-04T01:02:13.791Z,0.75
2022-11-04T01:02:26.298Z,0.75
2022-11-04T01:02:38.382Z,0.98
2022-11-04T01:02:50.290Z,1.10
2022-11-04T01:03:02.283Z,1.05
2022-11-04T01:03:14.131Z,1.00
2022-11-04T01:03:26.005Z,0.90
2022-11-04T01:03:38.741Z,1.00
2022-11-04T01:03:52.526Z,0.95
2022-11-04T01:04:04.614Z,1.00
2022-11-04T01:04:16.513Z,1.00
2022-11-04T01:04:28.574Z,0.90
2022-11-04T01:04:40.475Z,0.95
2022-11-04T01:04:52.338Z,1.00
2022-11-04T01:05:04.588Z,0.95
2022-11-04T01:05:16.559Z,0.80
2022-11-04T01:05:28.579Z,0.80
2022-11-04T01:05:40.678Z,0.90
2022-11-04T01:05:52.534Z,0.80
2022-11-04T01:06:05.598Z,0.80
2022-11-04T01:06:18.551Z,1.00
2022-11-04T01:06:30.461Z,1.00
2022-11-04T01:06:42.338Z,1.00
2022-11-04T01:06:54.220Z,0.90
2022-11-04T01:07:06.103Z,1.00
2022-11-04T01:07:18.019Z,1.00
2022-11-04T01:07:30.807Z,0.90
2022-11-04T01:07:43.906Z,0.90
2022-11-04T01:07:56.619Z,0.90
2022-11-04T01:08:08.482Z,0.90
2022-11-04T01:08:20.327Z,1.00
2022-11-04T01:08:32.644Z,1.10
2022-11-04T01:08:45.208Z,1.00
2022-11-04T01:09:01.902Z,0.90
2022-11-04T01:09:14.112Z,0.90
2022-11-04T01:09:26.040Z,0.90
2022-11-04T01:09:38.029Z,0.90
2022-11-04T01:09:49.899Z,0.93
2022-11-04T01:10:01.757Z,0.98
2022-11-04T01:10:13.737Z,1.08
2022-11-04T01:10:25.599Z,1.10
2022-11-04T01:10:44.490Z,1.10
2022-11-04T01:10:56.367Z,0.90
2022-11-04T01:11:09.617Z,0.90
2022-11-04T01:11:21.612Z,0.90
2022-11-04T01:11:34.041Z,0.90
2022-11-04T01:11:45.910Z,0.95
2022-11-04T01:11:57.801Z,1.00
2022-11-04T01:12:09.680Z,1.20
2022-11-04T01:12:21.608Z,1.15
2022-11-04T01:12:33.464Z,1.00
2022-11-04T01:12:45.364Z,0.90
2022-11-04T01:12:57.214Z,1.00
2022-11-04T01:13:09.426Z,1.00
2022-11-04T01:13:21.512Z,0.90
2022-11-04T01:13:33.886Z,0.90
2022-11-04T01:13:45.862Z,0.90
2022-11-04T01:13:58.597Z,0.90
2022-11-04T01:14:10.488Z,0.90
2022-11-04T01:14:23.186Z,0.90
2022-11-04T01:14:35.278Z,0.90
2022-11-04T01:14:49.682Z,0.95
2022-11-04T01:15:01.636Z,0.90
2022-11-04T01:15:13.503Z,1.00
2022-11-04T01:15:25.418Z,1.02
2022-11-04T01:15:38.137Z,0.98
2022-11-04T01:15:50.032Z,0.90
2022-11-04T01:16:05.056Z,0.88
2022-11-04T01:16:18.058Z,1.00
2022-11-04T01:16:30.955Z,1.00
2022-11-04T01:16:43.406Z,0.93
2022-11-04T01:16:55.283Z,1.00
2022-11-04T01:17:07.335Z,1.03
2022-11-04T01:17:19.238Z,1.17
2022-11-04T01:17:31.128Z,1.25
2022-11-04T01:17:43.063Z,1.10
2022-11-04T01:17:54.931Z,0.90
2022-11-04T01:18:07.351Z,1.10
2022-11-04T01:18:19.398Z,1.10
2022-11-04T01:18:31.547Z,0.93
2022-11-04T01:18:43.597Z,0.93
2022-11-04T01:18:55.532Z,0.88
2022-11-04T01:19:07.581Z,0.80
2022-11-04T01:19:19.553Z,0.90
2022-11-04T01:19:31.470Z,0.90
2022-11-04T01:19:43.737Z,0.90
2022-11-04T01:19:55.619Z,0.90
2022-11-04T01:20:07.941Z,0.90
2022-11-04T01:20:20.098Z,1.00
2022-11-04T01:20:33.513Z,1.08
2022-11-04T01:20:45.363Z,1.10
2022-11-04T01:21:01.516Z,1.02
2022-11-04T01:21:15.384Z,1.10
2022-11-04T01:21:27.319Z,1.10
2022-11-04T01:21:39.234Z,0.88
2022-11-04T01:21:52.687Z,0.80
2022-11-04T01:22:04.535Z,0.88
2022-11-04T01:22:16.460Z,1.00
2022-11-04T01:22:28.379Z,1.00
2022-11-04T01:22:40.495Z,1.00
2022-11-04T01:22:52.364Z,0.90
2022-11-04T01:23:04.255Z,0.90
2022-11-04T01:23:16.493Z,0.90
2022-11-04T01:23:28.604Z,1.00
2022-11-04T01:23:42.595Z,0.98
2022-11-04T01:23:54.482Z,1.00
2022-11-04T01:24:06.642Z,1.00
2022-11-04T01:24:19.094Z,0.93
2022-11-04T01:24:30.956Z,0.98
2022-11-04T01:24:42.855Z,0.90
2022-11-04T01:24:54.739Z,1.00
2022-11-04T01:25:07.425Z,1.00
2022-11-04T01:25:19.493Z,1.00
2022-11-04T01:25:31.347Z,1.00
2022-11-04T01:25:43.279Z,1.02
2022-11-04T01:25:55.688Z,1.00
2022-11-04T01:26:12.812Z,0.98
2022-11-04T01:26:25.954Z,1.08
2022-11-04T01:26:37.827Z,1.00
2022-11-04T01:26:49.798Z,1.00
2022-11-04T01:27:01.688Z,0.95
2022-11-04T01:27:13.597Z,1.05
2022-11-04T01:27:25.472Z,1.05
2022-11-04T01:27:37.387Z,1.00
2022-11-04T01:27:49.294Z,0.88
2022-11-04T01:28:01.197Z,1.00
2022-11-04T01:28:13.090Z,0.90
2022-11-04T01:28:24.969Z,0.90
2022-11-04T01:28:36.898Z,0.90
2022-11-04T01:28:49.229Z,1.00
2022-11-04T01:29:01.118Z,1.00
2022-11-04T01:29:12.996Z,1.00
2022-11-04T01:29:25.096Z,1.00
2022-11-04T01:29:37.008Z,1.00
2022-11-04T01:29:48.984Z,0.95
2022-11-04T01:30:00.894Z,1.00
2022-11-04T01:30:12.985Z,1.00
2022-11-04T01:30:24.858Z,1.00
2022-11-04T01:30:39.403Z,1.00
2022-11-04T01:30:51.293Z,1.10
2022-11-04T01:31:07.249Z,1.20
2022-11-04T01:31:24.403Z,1.00
2022-11-04T01:31:36.338Z,0.90
2022-11-04T01:31:48.237Z,0.98
2022-11-04T01:32:00.230Z,1.00
2022-11-04T01:32:12.129Z,1.00
2022-11-04T01:32:23.999Z,1.17
2022-11-04T01:32:35.904Z,1.08
2022-11-04T01:32:47.788Z,0.95
2022-11-04T01:32:59.672Z,1.00
2022-11-04T01:33:11.634Z,1.00
2022-11-04T01:33:24.839Z,0.90
2022-11-04T01:33:37.616Z,0.90
2022-11-04T01:33:51.273Z,1.00
2022-11-04T01:34:03.252Z,1.00
2022-11-04T01:34:15.129Z,1.05
2022-11-04T01:34:27.042Z,0.95
2022-11-04T01:34:42.452Z,0.88
2022-11-04T01:34:55.683Z,0.98
2022-11-04T01:35:07.932Z,1.08
2022-11-04T01:35:19.791Z,1.00
2022-11-04T01:35:31.907Z,0.90
2022-11-04T01:35:44.021Z,0.85
2022-11-04T01:35:59.763Z,0.82
2022-11-04T01:36:11.816Z,0.82
2022-11-04T01:36:23.873Z,0.90
2022-11-04T01:36:35.920Z,0.95
2022-11-04T01:36:47.788Z,1.02
2022-11-04T01:36:59.665Z,1.00
2022-11-04T01:37:11.590Z,0.83
2022-11-04T01:37:23.482Z,0.90
2022-11-04T01:37:35.538Z,0.90
2022-11-04T01:37:47.475Z,0.95
2022-11-04T01:37:59.397Z,1.00
2022-11-04T01:38:11.670Z,1.05
2022-11-04T01:38:23.681Z,0.90
2022-11-04T01:38:35.919Z,0.90
2022-11-04T01:38:48.004Z,0.90
2022-11-04T01:38:59.918Z,1.00
2022-11-04T01:39:12.925Z,0.90
2022-11-04T01:39:24.797Z,0.90
2022-11-04T01:39:36.676Z,0.90
2022-11-04T01:39:48.574Z,0.90
2022-11-04T01:40:00.475Z,0.85
2022-11-04T01:40:12.511Z,0.77
2022-11-04T01:40:24.853Z,0.90
2022-11-04T01:40:38.518Z,0.88
2022-11-04T01:40:50.480Z,0.82
2022-11-04T01:41:03.245Z,0.98
2022-11-04T01:41:24.923Z,1.10
2022-11-04T01:41:36.858Z,1.00
2022-11-04T01:41:48.774Z,0.98
2022-11-04T01:42:00.710Z,0.93
2022-11-04T01:42:14.992Z,0.90
2022-11-04T01:42:26.967Z,0.95
2022-11-04T01:42:38.854Z,1.00
2022-11-04T01:42:50.737Z,1.00
2022-11-04T01:43:02.634Z,0.93
2022-11-04T01:43:21.230Z,0.85
2022-11-04T01:44:22.140Z,1.13
2022-11-04T01:44:47.678Z,1.00
2022-11-04T01:45:00.956Z,1.02
2022-11-04T01:45:14.853Z,0.93
2022-11-04T01:45:27.268Z,0.90
2022-11-04T01:45:39.193Z,0.90
2022-11-04T01:46:01.220Z,1.00
2022-11-04T01:46:19.813Z,0.88
2022-11-04T01:46:38.751Z,0.98
2022-11-04T01:46:53.902Z,0.90
2022-11-04T01:47:06.003Z,0.90
2022-11-04T01:47:25.647Z,1.00
2022-11-04T01:47:43.574Z,1.00
2022-11-04T01:48:04.048Z,1.00
2022-11-04T01:48:22.350Z,0.90
2022-11-04T01:48:35.112Z,1.20
2022-11-04T01:48:47.240Z,1.30
2022-11-04T01:49:04.233Z,1.02
2022-11-04T01:49:26.067Z,0.90
2022-11-04T01:49:43.320Z,0.70
2022-11-04T01:50:04.938Z,0.73
2022-11-04T01:50:24.657Z,1.00
2022-11-04T01:50:37.269Z,0.95
2022-11-04T01:50:51.933Z,1.00
2022-11-04T01:51:05.815Z,1.08
2022-11-04T01:51:17.801Z,1.10
2022-11-04T01:51:35.669Z,1.00
2022-11-04T01:51:50.460Z,0.90
2022-11-04T01:52:11.128Z,0.90
2022-11-04T01:52:40.502Z,1.10
2022-11-04T01:53:00.480Z,0.90
2022-11-04T01:53:18.789Z,0.90
2022-11-04T01:53:34.394Z,0.80
2022-11-04T01:53:48.446Z,0.90
2022-11-04T01:54:01.549Z,0.90
2022-11-04T01:54:14.123Z,1.05
2022-11-04T01:54:26.972Z,1.15
2022-11-04T01:54:42.803Z,1.10
2022-11-04T01:54:57.430Z,0.90
2022-11-04T01:55:14.612Z,0.90
2022-11-04T01:55:31.595Z,0.90
2022-11-04T01:55:50.670Z,0.90
2022-11-04T01:56:12.137Z,0.85
2022-11-04T01:56:26.585Z,0.80
2022-11-04T01:56:41.963Z,0.80
2022-11-04T01:56:55.023Z,1.00
2022-11-04T01:57:15.072Z,0.85
2022-11-04T01:57:36.470Z,0.70
2022-11-04T01:57:50.387Z,0.80
2022-11-04T01:58:08.047Z,0.80
2022-11-04T01:58:23.154Z,0.88
2022-11-04T01:58:35.290Z,0.90
2022-11-04T01:58:52.049Z,0.90
2022-11-04T01:59:12.589Z,0.90
2022-11-04T01:59:28.308Z,0.90
2022-11-04T01:59:40.928Z,0.90
2022-11-04T01:59:53.006Z,0.90
2022-11-04T02:00:07.664Z,1.00
2022-11-04T02:00:19.739Z,1.00
2022-11-04T02:00:32.914Z,0.98
2022-11-04T02:00:45.083Z,0.90
2022-11-04T02:00:57.000Z,0.90
2022-11-04T02:01:11.232Z,1.10
2022-11-04T02:01:23.819Z,0.95
2022-11-04T02:01:35.948Z,0.90
2022-11-04T02:01:48.108Z,0.98
2022-11-04T02:02:00.231Z,0.90
2022-11-04T02:02:12.368Z,0.80
2022-11-04T02:02:24.536Z,0.80
2022-11-04T02:02:46.321Z,0.80
2022-11-04T02:03:09.097Z,0.90
2022-11-04T02:03:28.493Z,0.80
2022-11-04T02:03:54.346Z,0.82
2022-11-04T02:04:24.832Z,0.88
2022-11-04T02:04:38.304Z,0.80
2022-11-04T02:04:50.262Z,0.80
2022-11-04T02:05:02.147Z,0.90
2022-11-04T02:05:14.161Z,0.80
2022-11-04T02:05:28.316Z,0.80
2022-11-04T02:05:41.819Z,0.80
2022-11-04T02:05:54.675Z,0.90
2022-11-04T02:06:07.731Z,0.90
2022-11-04T02:06:22.016Z,0.90
2022-11-04T02:06:33.943Z,0.90
2022-11-04T02:06:47.894Z,0.90
2022-11-04T02:07:02.255Z,0.80
2022-11-04T02:07:14.431Z,0.82
2022-11-04T02:07:27.390Z,0.90
2022-11-04T02:07:39.299Z,0.80
2022-11-04T02:07:55.021Z,0.90
2022-11-04T02:08:09.249Z,0.98
2022-11-04T02:08:21.858Z,0.80
2022-11-04T02:08:34.771Z,0.82
2022-11-04T02:08:47.884Z,0.90
2022-11-04T02:08:59.846Z,0.80
2022-11-04T02:09:12.613Z,0.70
2022-11-04T02:09:26.763Z,0.70
2022-11-04T02:09:40.267Z,0.80
2022-11-04T02:09:53.039Z,0.80
2022-11-04T02:10:05.571Z,0.75
2022-11-04T02:10:20.140Z,0.85
2022-11-04T02:10:33.160Z,0.95
2022-11-04T02:10:56.115Z,0.95
2022-11-04T02:11:08.055Z,1.03
2022-11-04T02:11:38.659Z,1.08
2022-11-04T02:12:09.179Z,0.70
2022-11-04T02:12:39.580Z,0.70
2022-11-04T02:12:51.948Z,0.93
2022-11-04T02:13:05.710Z,0.90
2022-11-04T02:13:18.443Z,1.02
2022-11-04T02:13:32.511Z,1.00
2022-11-04T02:13:44.396Z,0.90
2022-11-04T02:13:56.334Z,0.88
2022-11-04T02:14:08.241Z,0.80
2022-11-04T02:14:20.164Z,0.70
2022-11-04T02:14:34.665Z,0.73
2022-11-04T02:14:48.992Z,0.77
2022-11-04T02:15:00.923Z,0.80
2022-11-04T02:15:12.821Z,0.90
2022-11-04T02:15:53.292Z,0.90
2022-11-04T02:16:21.099Z,0.73
2022-11-04T02:16:44.713Z,0.70
2022-11-04T02:17:09.857Z,0.80
2022-11-04T02:17:45.725Z,0.95
2022-11-04T02:18:16.015Z,0.75
2022-11-04T02:18:46.459Z,0.90
2022-11-04T02:19:14.628Z,0.70
2022-11-04T02:19:44.582Z,0.88
2022-11-04T02:20:08.447Z,0.73
2022-11-04T02:20:25.972Z,0.80
2022-11-04T02:21:08.333Z,0.90
2022-11-04T02:21:55.503Z,0.80
2022-11-04T02:22:22.114Z,0.80
2022-11-04T02:23:00.037Z,0.80
2022-11-04T02:23:42.446Z,0.65
2022-11-04T02:24:09.247Z,0.90
2022-11-04T02:24:47.489Z,0.70
2022-11-04T02:25:11.382Z,1.00
2022-11-04T02:25:26.042Z,0.82
2022-11-04T02:25:40.739Z,0.90
2022-11-04T02:26:30.106Z,0.93
2022-11-04T02:26:52.766Z,0.80
2022-11-04T02:27:43.446Z,0.70
2022-11-04T02:28:32.522Z,0.70
2022-11-04T02:28:50.192Z,0.73
2022-11-04T02:29:20.463Z,0.85
2022-11-04T02:30:03.977Z,0.80
2022-11-04T02:30:20.870Z,1.05
2022-11-04T02:30:46.512Z,0.85
2022-11-04T02:31:23.809Z,0.65
2022-11-04T02:32:08.910Z,0.70
2022-11-04T02:32:44.118Z,0.73
2022-11-04T02:33:14.319Z,0.80
2022-11-04T02:33:38.540Z,0.70
2022-11-04T02:34:19.618Z,0.80
2022-11-04T02:34:43.254Z,0.80
2022-11-04T02:35:19.743Z,0.80
2022-11-04T02:35:49.878Z,0.98
2022-11-04T02:36:17.497Z,0.80
2022-11-04T02:36:42.352Z,0.70
2022-11-04T02:37:22.353Z,0.75
2022-11-04T02:38:03.284Z,0.80
2022-11-04T02:38:37.725Z,0.95
2022-11-04T02:38:59.185Z,0.70
2022-11-04T02:39:35.138Z,0.70
2022-11-04T02:40:11.178Z,0.70
2022-11-04T02:40:40.230Z,0.60
2022-11-04T02:41:08.946Z,0.77
2022-11-04T02:41:28.940Z,0.60
2022-11-04T02:41:53.255Z,0.70
2022-11-04T02:42:17.487Z,0.70
2022-11-04T02:42:43.878Z,0.90
2022-11-04T02:43:04.010Z,0.70
2022-11-04T02:43:28.686Z,0.80
2022-11-04T02:44:13.597Z,0.70
2022-11-04T02:44:45.619Z,0.98
2022-11-04T02:45:09.199Z,0.70
2022-11-04T02:45:23.039Z,0.63
2022-11-04T02:45:50.389Z,0.80
2022-11-04T02:46:16.980Z,0.80
2022-11-04T02:46:40.143Z,0.70
2022-11-04T02:47:00.032Z,0.80
2022-11-04T02:47:17.328Z,0.80
2022-11-04T02:47:31.427Z,0.70
2022-11-04T02:47:54.186Z,0.90
2022-11-04T02:48:12.609Z,0.88
2022-11-04T02:48:35.677Z,0.77
2022-11-04T02:48:57.308Z,0.88
2022-11-04T02:49:15.818Z,0.90
2022-11-04T02:49:57.909Z,0.80
2022-11-04T02:50:17.156Z,0.77
2022-11-04T02:50:45.210Z,0.70
2022-11-04T02:51:07.992Z,0.70
2022-11-04T02:51:36.516Z,0.73
2022-11-04T02:52:08.271Z,0.80
2022-11-04T02:52:27.776Z,0.82
2022-11-04T02:52:53.250Z,0.82
2022-11-04T02:53:31.436Z,0.80
2022-11-04T02:54:06.035Z,0.90
2022-11-04T02:54:28.463Z,0.90
2022-11-04T02:54:58.471Z,0.80
2022-11-04T02:55:19.856Z,0.70
2022-11-04T02:55:49.424Z,0.80
2022-11-04T02:56:04.076Z,0.80
2022-11-04T02:56:19.229Z,0.80
2022-11-04T02:56:36.193Z,0.75
2022-11-04T02:56:51.405Z,0.63
2022-11-04T02:57:07.942Z,0.68
2022-11-04T02:57:25.043Z,0.85
2022-11-04T02:57:42.057Z,0.90
2022-11-04T02:57:56.528Z,0.90
2022-11-04T02:58:17.564Z,0.90
2022-11-04T02:58:34.509Z,0.70
2022-11-04T02:58:54.822Z,0.73
2022-11-04T02:59:14.277Z,0.80
2022-11-04T02:59:35.205Z,0.90
2022-11-04T02:59:55.799Z,0.90
2022-11-04T03:00:10.813Z,1.00
2022-11-04T03:00:22.732Z,0.90
2022-11-04T03:00:39.195Z,0.90
2022-11-04T03:00:54.804Z,0.88
2022-11-04T03:01:11.672Z,0.70
2022-11-04T03:01:29.363Z,0.80
2022-11-04T03:01:45.260Z,0.75
2022-11-04T03:02:00.322Z,0.65
2022-11-04T03:02:19.317Z,0.60
2022-11-04T03:02:45.427Z,0.80
2022-11-04T03:03:01.676Z,0.70
2022-11-04T03:03:19.381Z,0.80
2022-11-04T03:03:37.378Z,0.80
2022-11-04T03:03:56.317Z,0.80
2022-11-04T03:04:18.082Z,0.88
2022-11-04T03:04:34.213Z,0.70
2022-11-04T03:04:50.459Z,0.70
2022-11-04T03:05:07.210Z,0.80
2022-11-04T03:05:26.129Z,0.82
2022-11-04T03:05:42.258Z,0.80
2022-11-04T03:05:57.923Z,0.70
2022-11-04T03:06:13.901Z,0.90
2022-11-04T03:06:27.735Z,1.00
2022-11-04T03:06:41.382Z,0.80
2022-11-04T03:06:56.267Z,0.68
2022-11-04T03:07:34.631Z,0.85
2022-11-04T03:07:49.391Z,0.95
2022-11-04T03:08:06.916Z,0.90
2022-11-04T03:08:26.864Z,0.82
2022-11-04T03:08:42.788Z,0.90
2022-11-04T03:08:55.756Z,0.90
2022-11-04T03:09:10.032Z,0.88
2022-11-04T03:09:23.585Z,0.95
2022-11-04T03:09:39.284Z,1.00
2022-11-04T03:09:58.288Z,0.93
2022-11-04T03:10:23.279Z,0.80
2022-11-04T03:10:45.364Z,0.73
2022-11-04T03:11:11.524Z,0.70
2022-11-04T03:11:25.501Z,0.70
2022-11-04T03:11:40.527Z,0.77
2022-11-04T03:11:57.619Z,0.80
2022-11-04T03:12:16.874Z,0.80
2022-11-04T03:12:36.822Z,0.90
2022-11-04T03:12:55.032Z,0.70
2022-11-04T03:13:14.073Z,0.68
2022-11-04T03:13:36.542Z,0.80
2022-11-04T03:14:03.529Z,0.90
2022-11-04T03:14:44.478Z,0.80
2022-11-04T03:15:04.749Z,0.70
2022-11-04T03:15:24.733Z,0.90
2022-11-04T03:15:39.835Z,0.90
2022-11-04T03:15:58.059Z,0.70
2022-11-04T03:16:23.688Z,0.73
2022-11-04T03:16:43.818Z,0.88
2022-11-04T03:17:03.806Z,0.90
2022-11-04T03:17:27.439Z,0.90
2022-11-04T03:18:00.363Z,0.90
2022-11-04T03:18:29.399Z,1.10
2022-11-04T03:18:47.176Z,0.75
2022-11-04T03:19:13.948Z,0.75
2022-11-04T03:19:54.974Z,0.77
2022-11-04T03:20:11.706Z,1.02
2022-11-04T03:20:27.300Z,0.70
2022-11-04T03:20:41.065Z,1.30
2022-11-04T03:20:58.122Z,1.48
2022-11-04T03:21:12.928Z,1.10
2022-11-04T03:21:27.129Z,1.10
2022-11-04T03:21:46.658Z,1.10
2022-11-04T03:22:04.165Z,0.98
2022-11-04T03:22:22.072Z,0.80
2022-11-04T03:22:36.845Z,0.90
2022-11-04T03:22:49.096Z,1.00
2022-11-04T03:23:01.177Z,0.90
2022-11-04T03:23:13.633Z,0.90
2022-11-04T03:23:25.800Z,0.80
2022-11-04T03:23:38.154Z,0.70
2022-11-04T03:23:50.358Z,0.70
2022-11-04T03:24:03.539Z,0.80
2022-11-04T03:24:15.615Z,0.77
2022-11-04T03:24:28.261Z,0.80
2022-11-04T03:24:42.380Z,0.82
2022-11-04T03:24:55.050Z,0.85
2022-11-04T03:25:08.978Z,0.80
2022-11-04T03:25:24.397Z,0.80
2022-11-04T03:25:47.726Z,0.90
2022-11-04T03:26:21.764Z,1.00
2022-11-04T03:26:38.631Z,0.90
2022-11-04T03:27:26.199Z,0.85
2022-11-04T03:27:49.715Z,0.82
2022-11-04T03:28:12.418Z,0.80
2022-11-04T03:28:50.987Z,0.80
2022-11-04T03:29:15.035Z,0.85
2022-11-04T03:29:32.710Z,0.90
2022-11-04T03:29:59.405Z,0.85
2022-11-04T03:30:45.929Z,0.80
2022-11-04T03:31:03.223Z,0.75
2022-11-04T03:31:25.593Z,0.80
2022-11-04T03:31:49.094Z,1.10
2022-11-04T03:32:05.053Z,0.90
2022-11-04T03:32:49.138Z,0.88
2022-11-04T03:33:17.492Z,0.80
2022-11-04T03:33:36.080Z,0.90
2022-11-04T03:33:51.078Z,0.93
2022-11-04T03:34:02.993Z,0.90
2022-11-04T03:34:14.952Z,0.80
2022-11-04T03:34:26.872Z,0.73
2022-11-04T03:34:38.943Z,0.70
2022-11-04T03:34:51.794Z,0.70
2022-11-04T03:35:04.498Z,0.77
2022-11-04T03:35:17.526Z,0.73
2022-11-04T03:35:29.647Z,0.75
2022-11-04T03:35:41.642Z,0.80
2022-11-04T03:35:53.756Z,0.80
2022-11-04T03:36:08.648Z,0.77
2022-11-04T03:36:23.375Z,0.70
2022-11-04T03:36:35.325Z,0.73
2022-11-04T03:36:47.235Z,0.75
2022-11-04T03:36:59.569Z,0.90
2022-11-04T03:37:11.550Z,0.90
2022-11-04T03:37:23.574Z,0.77
2022-11-04T03:37:35.593Z,0.70
2022-11-04T03:37:49.747Z,0.70
2022-11-04T03:38:02.139Z,0.88
2022-11-04T03:38:14.140Z,0.90
2022-11-04T03:38:26.092Z,0.90
2022-11-04T03:38:38.751Z,0.82
2022-11-04T03:38:52.547Z,0.80
2022-11-04T03:39:04.504Z,0.73
2022-11-04T03:39:16.436Z,0.80
2022-11-04T03:39:28.555Z,0.80
2022-11-04T03:39:40.690Z,0.70
2022-11-04T03:39:52.722Z,0.70
2022-11-04T03:40:05.249Z,0.80
2022-11-04T03:40:20.388Z,1.00